Time;durP1;ratioP1;P1;durP2;ratioP2;P2;SDS_P1;SDS_P2;PMS_P1;PMS_P2;Temp;Humidity;BMP_temperature;BMP_pressure;BME280_temperature;BME280_humidity;BME280_pressure;Samples;Min_cycle;Max_cycle;Signal;HPM_P1;HPM_P2
2020/12/09 00:00:20;;;;;;;14.58;6.12;;;;;;;-5.68;64.39;101375.45;1717146;83;21825;-75
2020/12/09 00:02:48;;;;;;;13.58;7.08;;;;;;;-5.67;64.27;101376.73;1694095;83;21090;-75
2020/12/09 00:05:15;;;;;;;10.72;6.20;;;;;;;-5.64;64.27;101383.59;1673581;83;21595;-74
2020/12/09 00:07:44;;;;;;;14.23;7.05;;;;;;;-5.63;64.33;101378.45;1696100;83;21149;-75
2020/12/09 00:10:12;;;;;;;11.10;6.05;;;;;;;-5.62;64.35;101375.02;1711037;83;21200;-74
2020/12/09 00:12:40;;;;;;;12.63;5.90;;;;;;;-5.61;64.26;101376.73;1711248;83;22072;-74
2020/12/09 00:15:08;;;;;;;9.80;5.80;;;;;;;-5.61;64.32;101376.73;1705465;83;21218;-75
2020/12/09 00:17:39;;;;;;;15.98;7.10;;;;;;;-5.61;64.27;101385.73;1683565;84;21082;-77
2020/12/09 00:20:08;;;;;;;13.25;7.30;;;;;;;-5.60;64.33;101382.30;1682857;85;21075;-77
2020/12/09 00:22:37;;;;;;;13.72;7.55;;;;;;;-5.58;64.28;101384.48;1683778;85;21073;-76
2020/12/09 00:25:07;;;;;;;16.17;8.63;;;;;;;-5.61;64.25;101383.59;1683577;85;22135;-74
2020/12/09 00:27:35;;;;;;;11.35;6.17;;;;;;;-5.60;64.35;101382.73;1697397;83;21133;-74
2020/12/09 00:30:05;;;;;;;15.20;8.65;;;;;;;-5.59;64.31;101387.91;1711046;83;21173;-74
2020/12/09 00:32:36;;;;;;;26.05;12.65;;;;;;;-5.57;64.29;101390.48;1702862;83;21583;-74
2020/12/09 00:35:06;;;;;;;21.45;10.15;;;;;;;-5.59;64.21;101385.34;1672403;85;21381;-74
2020/12/09 00:37:35;;;;;;;26.05;10.40;;;;;;;-5.59;64.12;101380.19;1703031;83;22100;-74
2020/12/09 00:40:04;;;;;;;29.00;11.45;;;;;;;-5.59;64.16;101384.05;1707267;83;22559;-74
2020/12/09 00:42:33;;;;;;;21.82;9.60;;;;;;;-5.59;64.15;101378.05;1707969;83;21603;-74
2020/12/09 00:45:01;;;;;;;22.07;9.20;;;;;;;-5.59;64.12;101376.33;1709693;83;21066;-73
2020/12/09 00:47:29;;;;;;;18.57;8.13;;;;;;;-5.58;64.05;101375.47;1711028;83;21449;-74
2020/12/09 00:52:46;;;;;;;23.55;10.35;;;;;;;-5.56;63.87;101387.05;1697287;83;21152;-74
2020/12/09 00:55:16;;;;;;;18.65;8.83;;;;;;;-5.55;63.87;101381.91;1706895;83;21117;-74
2020/12/09 00:57:45;;;;;;;17.07;8.73;;;;;;;-5.54;63.79;101386.19;1711913;83;21209;-74
2020/12/09 01:00:14;;;;;;;11.83;5.87;;;;;;;-5.52;63.81;101372.03;1711211;83;21126;-73
2020/12/09 01:02:45;;;;;;;13.98;8.00;;;;;;;-5.51;63.77;101375.04;1679373;83;22060;-74
2020/12/09 01:05:14;;;;;;;9.65;5.50;;;;;;;-5.52;63.63;101373.32;1704852;82;21260;-74
2020/12/09 01:07:43;;;;;;;16.93;8.70;;;;;;;-5.54;63.66;101381.05;1710300;82;21191;-74
2020/12/09 01:10:11;;;;;;;15.28;7.85;;;;;;;-5.55;63.58;101369.03;1705879;82;21076;-74
2020/12/09 01:12:40;;;;;;;15.10;8.43;;;;;;;-5.56;63.63;101366.46;1705887;82;21369;-74
2020/12/09 01:15:09;;;;;;;19.05;9.35;;;;;;;-5.57;63.73;101364.75;1702954;82;21843;-74
2020/12/09 01:17:36;;;;;;;13.55;7.60;;;;;;;-5.57;63.69;101369.89;1702997;82;21163;-74
2020/12/09 01:20:07;;;;;;;13.85;7.55;;;;;;;-5.55;63.75;101363.89;1702578;84;21080;-74
2020/12/09 01:22:35;;;;;;;14.28;6.78;;;;;;;-5.55;63.79;101360.02;1704296;82;21143;-74
2020/12/09 01:25:04;;;;;;;15.80;8.43;;;;;;;-5.54;63.83;101373.33;1704591;82;21135;-74
2020/12/09 01:27:31;;;;;;;13.95;8.10;;;;;;;-5.54;63.85;101369.89;1684812;84;21474;-74
2020/12/09 01:30:00;;;;;;;14.18;7.00;;;;;;;-5.52;63.96;101367.75;1691817;82;21120;-74
2020/12/09 01:32:27;;;;;;;14.73;7.85;;;;;;;-5.49;64.05;101370.78;1703110;82;21084;-74
2020/12/09 01:34:56;;;;;;;12.60;7.15;;;;;;;-5.50;64.12;101368.63;1702946;82;22640;-74
2020/12/09 01:37:24;;;;;;;12.15;7.08;;;;;;;-5.50;64.27;101360.91;1704432;82;21141;-74
2020/12/09 01:39:51;;;;;;;13.22;6.85;;;;;;;-5.48;64.40;101363.48;1702516;84;22083;-74
2020/12/09 01:42:20;;;;;;;20.15;8.20;;;;;;;-5.49;64.50;101357.48;1704346;82;21462;-74
2020/12/09 01:44:48;;;;;;;14.58;7.85;;;;;;;-5.48;64.55;101361.77;1702527;84;21073;-74
2020/12/09 01:47:16;;;;;;;11.15;6.67;;;;;;;-5.45;64.67;101363.48;1702877;82;21601;-74
2020/12/09 01:49:44;;;;;;;10.25;5.60;;;;;;;-5.44;64.78;101353.61;1706984;82;21131;-74
2020/12/09 01:52:12;;;;;;;13.15;6.70;;;;;;;-5.44;64.86;101361.33;1709347;82;21887;-75
2020/12/09 01:54:40;;;;;;;11.93;7.08;;;;;;;-5.45;64.87;101357.04;1686433;82;21066;-75
2020/12/09 01:57:12;;;;;;;12.65;6.58;;;;;;;-5.45;64.94;101360.91;1705129;82;21072;-75
2020/12/09 01:59:42;;;;;;;11.78;6.90;;;;;;;-5.44;64.94;101365.19;1705929;82;21424;-74
2020/12/09 02:02:09;;;;;;;11.68;7.12;;;;;;;-5.44;64.98;101361.33;1703956;82;21527;-74
2020/12/09 02:04:37;;;;;;;14.05;8.15;;;;;;;-5.43;65.06;101368.63;1703084;82;21905;-75
2020/12/09 02:07:05;;;;;;;14.18;7.45;;;;;;;-5.42;65.11;101368.63;1702889;82;21176;-73
2020/12/09 02:09:33;;;;;;;12.98;6.72;;;;;;;-5.40;65.17;101372.48;1715602;82;21128;-74
2020/12/09 02:12:01;;;;;;;14.50;7.45;;;;;;;-5.39;65.18;101372.51;1717400;82;21090;-74
2020/12/09 02:14:29;;;;;;;13.03;5.35;;;;;;;-5.36;65.25;101380.66;1707826;82;21066;-73
2020/12/09 02:16:58;;;;;;;10.93;6.40;;;;;;;-5.37;65.30;101375.94;1712974;83;22832;-76
2020/12/09 02:19:28;;;;;;;16.65;8.43;;;;;;;-5.37;65.43;101368.22;1718381;82;21093;-74
2020/12/09 02:22:12;;;;;;;10.82;5.78;;;;;;;-5.34;65.49;101372.50;1695122;83;21138;-74
2020/12/09 02:24:40;;;;;;;14.78;8.28;;;;;;;-5.33;65.55;101371.64;1707803;82;21091;-73
2020/12/09 02:27:09;;;;;;;11.73;6.80;;;;;;;-5.32;65.58;101371.64;1687116;84;21067;-74
2020/12/09 02:29:38;;;;;;;13.65;7.33;;;;;;;-5.31;65.64;101368.64;1719775;81;22028;-75
2020/12/09 02:32:06;;;;;;;14.78;7.80;;;;;;;-5.30;65.72;101373.81;1707637;82;21126;-74
2020/12/09 02:34:33;;;;;;;16.87;8.65;;;;;;;-5.29;65.82;101369.09;1710037;82;21126;-74
2020/12/09 02:37:01;;;;;;;13.05;7.65;;;;;;;-5.28;65.91;101365.66;1709118;82;21058;-74
2020/12/09 02:39:34;;;;;;;16.17;8.63;;;;;;;-5.27;66.06;101358.36;1705752;82;21079;-74
2020/12/09 02:42:02;;;;;;;14.58;7.92;;;;;;;-5.25;66.22;101358.36;1700482;82;21897;-73
2020/12/09 02:44:33;;;;;;;13.53;7.87;;;;;;;-5.25;66.44;101359.21;1706707;84;21205;-73
2020/12/09 02:47:01;;;;;;;14.50;7.92;;;;;;;-5.24;66.56;101356.20;1707423;82;21066;-74
2020/12/09 02:49:29;;;;;;;17.73;8.95;;;;;;;-5.23;66.73;101352.34;1707748;82;21078;-74
2020/12/09 02:51:57;;;;;;;14.78;7.53;;;;;;;-5.20;66.88;101356.23;1712719;82;21142;-73
2020/12/09 02:54:24;;;;;;;14.23;7.45;;;;;;;-5.17;66.94;101355.80;1709284;82;22112;-73
2020/12/09 02:56:52;;;;;;;13.48;7.65;;;;;;;-5.16;67.10;101359.66;1707189;84;21169;-74
2020/12/09 02:59:20;;;;;;;14.63;7.70;;;;;;;-5.15;67.26;101353.64;1707259;84;21079;-73
2020/12/09 03:01:47;;;;;;;11.88;6.08;;;;;;;-5.13;67.40;101365.23;1715415;82;21064;-73
2020/12/09 03:04:15;;;;;;;19.05;9.03;;;;;;;-5.11;67.46;101357.95;1713217;82;21125;-73
2020/12/09 03:06:43;;;;;;;15.03;7.83;;;;;;;-5.10;67.58;101358.38;1708374;82;21803;-73
2020/12/09 03:09:11;;;;;;;12.70;7.12;;;;;;;-5.09;67.62;101361.81;1710125;82;21097;-74
2020/12/09 03:11:39;;;;;;;12.07;6.42;;;;;;;-5.07;67.63;101361.38;1713061;81;21058;-74
2020/12/09 03:14:07;;;;;;;13.78;8.03;;;;;;;-5.05;67.67;101358.36;1714539;81;21120;-73
2020/12/09 03:16:35;;;;;;;14.98;7.92;;;;;;;-5.05;67.69;101360.94;1684744;83;21126;-74
2020/12/09 03:19:03;;;;;;;16.37;8.18;;;;;;;-5.05;67.70;101358.36;1712350;83;21999;-74
2020/12/09 03:21:31;;;;;;;13.75;7.35;;;;;;;-5.03;67.82;101365.66;1715643;81;21217;-74
2020/12/09 03:24:00;;;;;;;19.27;8.20;;;;;;;-5.01;67.89;101371.70;1714442;81;21050;-76
2020/12/09 03:26:28;;;;;;;11.35;6.85;;;;;;;-5.00;67.96;101370.41;1711739;81;21062;-73
2020/12/09 03:28:55;;;;;;;13.68;6.80;;;;;;;-4.99;68.12;101373.41;1712891;81;21569;-73
2020/12/09 03:31:23;;;;;;;14.10;8.20;;;;;;;-4.98;68.24;101376.41;1712771;81;22079;-73
2020/12/09 03:33:51;;;;;;;14.07;7.85;;;;;;;-4.96;68.32;101378.98;1712726;81;21102;-73
2020/12/09 03:36:19;;;;;;;14.25;7.72;;;;;;;-4.94;68.34;101366.95;1714489;81;20935;-74
2020/12/09 03:38:47;;;;;;;11.57;6.33;;;;;;;-4.92;68.39;101365.25;1712961;81;21175;-74
2020/12/09 03:41:14;;;;;;;12.00;6.72;;;;;;;-4.91;68.46;101365.68;1715485;81;21117;-74
2020/12/09 03:43:42;;;;;;;12.78;6.55;;;;;;;-4.90;68.50;101370.83;1723546;83;21990;-74
2020/12/09 03:46:10;;;;;;;15.88;8.13;;;;;;;-4.90;68.56;101372.12;1719574;81;21162;-74
2020/12/09 03:48:37;;;;;;;13.43;8.35;;;;;;;-4.87;68.66;101372.97;1712494;83;21611;-75
2020/12/09 03:51:05;;;;;;;13.08;7.10;;;;;;;-4.86;68.76;101366.95;1713808;81;21130;-74
2020/12/09 03:53:34;;;;;;;16.27;8.83;;;;;;;-4.85;68.96;101374.67;1712520;83;21178;-74
2020/12/09 03:56:02;;;;;;;14.40;6.67;;;;;;;-4.84;69.00;101380.25;1713585;81;24282;-72
2020/12/09 03:58:30;;;;;;;14.07;8.45;;;;;;;-4.82;69.16;101379.85;1716028;83;21300;-73
2020/12/09 04:00:58;;;;;;;17.40;8.93;;;;;;;-4.81;69.21;101375.55;1720022;81;21224;-73
2020/12/09 04:03:25;;;;;;;12.82;6.97;;;;;;;-4.80;69.30;101385.86;1712930;81;22709;-74
2020/12/09 04:05:53;;;;;;;16.67;8.23;;;;;;;-4.79;69.38;101379.84;1713253;81;21511;-73
2020/12/09 04:08:21;;;;;;;13.03;7.53;;;;;;;-4.77;69.41;101379.41;1712447;81;24356;-74
2020/12/09 04:10:50;;;;;;;14.40;6.90;;;;;;;-4.76;69.53;101374.67;1710104;82;21074;-74
2020/12/09 04:13:17;;;;;;;17.90;8.88;;;;;;;-4.75;69.60;101380.25;1707477;82;21137;-74
2020/12/09 04:15:45;;;;;;;14.43;6.75;;;;;;;-4.74;69.61;101370.37;1701743;82;21184;-74
2020/12/09 04:18:13;;;;;;;14.95;7.95;;;;;;;-4.73;69.71;101366.07;1703736;84;21168;-74
2020/12/09 04:20:40;;;;;;;19.42;9.53;;;;;;;-4.71;69.72;101373.40;1682692;82;22055;-74
2020/12/09 04:23:09;;;;;;;13.58;7.55;;;;;;;-4.72;69.73;101376.84;1709589;84;21074;-74
2020/12/09 04:25:37;;;;;;;15.38;7.55;;;;;;;-4.71;69.75;101378.12;1696817;82;21125;-73
2020/12/09 04:28:05;;;;;;;17.95;8.35;;;;;;;-4.72;69.76;101369.11;1702296;82;21134;-74
2020/12/09 04:30:32;;;;;;;17.82;9.43;;;;;;;-4.71;69.74;101371.68;1704580;83;21193;-74
2020/12/09 04:33:00;;;;;;;15.88;7.72;;;;;;;-4.71;69.80;101367.81;1709774;83;22047;-74
2020/12/09 04:35:28;;;;;;;15.35;8.55;;;;;;;-4.71;69.85;101366.95;1719366;82;21106;-74
2020/12/09 04:37:55;;;;;;;17.45;9.75;;;;;;;-4.71;69.92;101378.12;1715574;82;21118;-74
2020/12/09 04:40:25;;;;;;;12.18;7.00;;;;;;;-4.71;69.94;101376.83;1704842;82;21208;-74
2020/12/09 04:42:57;;;;;;;16.93;9.58;;;;;;;-4.72;69.97;101371.25;1666720;84;21084;-74
2020/12/09 04:45:28;;;;;;;14.43;8.65;;;;;;;-4.71;69.97;101376.83;1717640;82;22075;-75
2020/12/09 04:48:06;;;;;;;15.43;9.53;;;;;;;-4.70;70.02;101375.11;1704108;83;21164;-74
2020/12/09 04:51:15;;;;;;;16.77;9.98;;;;;;;-4.68;70.06;101368.23;1721936;81;21102;-74
2020/12/09 04:53:45;;;;;;;17.20;9.43;;;;;;;-4.69;70.05;101367.80;1709994;83;21158;-73
2020/12/09 04:56:13;;;;;;;16.15;8.43;;;;;;;-4.70;70.10;101372.10;1706641;82;21599;-74
2020/12/09 04:58:42;;;;;;;16.48;9.80;;;;;;;-4.70;70.15;101366.09;1668399;84;22106;-73
2020/12/09 05:01:12;;;;;;;17.30;8.95;;;;;;;-4.71;70.21;101365.66;1720060;82;21093;-75
2020/12/09 05:03:49;;;;;;;14.30;7.90;;;;;;;-4.72;70.28;101371.25;1717049;82;21087;-76
2020/12/09 05:06:18;;;;;;;16.77;10.28;;;;;;;-4.73;70.42;101361.80;1718271;82;21576;-76
2020/12/09 05:08:55;;;;;;;13.68;7.65;;;;;;;-4.74;70.43;101363.92;1672949;83;21265;-76
2020/12/09 05:11:26;;;;;;;15.30;8.50;;;;;;;-4.72;70.45;101361.38;1654892;85;21894;-75
2020/12/09 05:13:55;;;;;;;15.35;8.90;;;;;;;-4.72;70.60;101359.66;1670045;84;21163;-79
2020/12/09 05:16:24;;;;;;;16.42;9.08;;;;;;;-4.72;70.74;101357.51;1639642;85;21059;-82
2020/12/09 05:18:58;;;;;;;14.43;8.33;;;;;;;-4.71;70.80;101360.52;1697266;83;21070;-78
2020/12/09 05:21:26;;;;;;;;;;;;;;;-4.72;70.89;101360.94;1696472;83;21153;-76
2020/12/09 05:23:59;;;;;;;16.23;8.83;;;;;;;-4.70;70.97;101360.50;1709791;83;22059;-75
2020/12/09 05:26:28;;;;;;;;;;;;;;;-4.70;71.07;101373.83;1714529;83;20998;-74
2020/12/09 05:29:17;;;;;;;18.20;10.23;;;;;;;-4.70;71.16;101373.83;1706873;83;20219;-73
2020/12/09 05:34:34;;;;;;;13.70;7.60;;;;;;;-4.69;71.38;101375.54;1684540;83;21177;-72
2020/12/09 05:37:05;;;;;;;21.10;10.50;;;;;;;-4.68;71.48;101365.22;1699401;83;22050;-76
2020/12/09 05:39:33;;;;;;;20.23;10.15;;;;;;;-4.64;71.53;101372.50;1691301;82;21090;-75
2020/12/09 05:42:16;;;;;;;17.57;8.35;;;;;;;-4.62;71.69;101370.81;1684428;83;21072;-80
2020/12/09 05:44:44;;;;;;;20.97;10.45;;;;;;;-4.62;71.77;101371.67;1683378;83;21163;-75
2020/12/09 05:47:12;;;;;;;15.85;8.50;;;;;;;-4.60;71.89;101374.23;1672574;83;21071;-73
2020/12/09 05:49:40;;;;;;;15.60;8.50;;;;;;;-4.59;72.01;101379.82;1675864;85;22149;-82
2020/12/09 05:52:19;;;;;;;20.82;12.20;;;;;;;-4.58;72.11;101381.97;1708250;83;21105;-84
2020/12/09 05:54:51;;;;;;;16.45;8.85;;;;;;;-4.58;72.20;101387.13;1687122;83;21125;-83
2020/12/09 05:57:26;;;;;;;15.10;8.28;;;;;;;-4.58;72.34;101384.11;1684556;83;21529;-84
2020/12/09 05:59:54;;;;;;;16.42;8.85;;;;;;;-4.57;72.43;101393.56;1669962;83;21123;-85
2020/12/09 06:02:24;;;;;;;18.52;9.15;;;;;;;-4.57;72.57;101390.98;1683998;85;22070;-85
2020/12/09 06:04:58;;;;;;;16.85;8.95;;;;;;;-4.56;72.63;101387.97;1675887;83;21212;-84
2020/12/09 06:07:29;;;;;;;16.67;8.43;;;;;;;-4.54;72.69;101392.26;1713962;83;21114;-85
2020/12/09 06:10:17;;;;;;;20.68;11.93;;;;;;;-4.51;72.78;101395.28;1720070;82;21143;-86
2020/12/09 06:12:59;;;;;;;20.92;11.50;;;;;;;-4.49;72.91;101402.15;1686737;84;21083;-85
2020/12/09 06:15:32;;;;;;;20.05;10.78;;;;;;;-4.45;72.97;101401.27;1703528;82;21543;-86
2020/12/09 06:18:09;;;;;;;18.57;11.03;;;;;;;-4.42;73.16;101404.30;1705640;82;21093;-86
2020/12/09 06:20:39;;;;;;;18.02;9.90;;;;;;;-4.39;73.25;101403.85;1710029;82;21143;-86
2020/12/09 06:23:14;;;;;;;19.77;10.18;;;;;;;-4.36;73.38;101410.28;1713326;82;21112;-89
2020/12/09 06:25:43;;;;;;;25.20;12.28;;;;;;;-4.33;73.49;101405.14;1721073;82;21026;-85
2020/12/09 06:28:15;;;;;;;18.87;9.88;;;;;;;-4.30;73.56;101413.73;1712218;82;22495;-85
2020/12/09 06:30:43;;;;;;;21.57;12.75;;;;;;;-4.28;73.69;101415.86;1711643;83;21674;-83
2020/12/09 06:33:12;;;;;;;25.35;13.65;;;;;;;-4.25;73.80;101411.55;1703810;82;21124;-85
2020/12/09 06:35:41;;;;;;;20.60;11.57;;;;;;;-4.23;73.81;101411.57;1712741;82;22568;-87
2020/12/09 06:38:14;;;;;;;19.65;11.03;;;;;;;-4.21;73.84;101415.86;1716473;83;21057;-87
2020/12/09 06:41:08;;;;;;;22.70;12.73;;;;;;;-4.19;73.85;101418.43;1713619;82;21844;-86
2020/12/09 06:43:37;;;;;;;21.97;12.30;;;;;;;-4.18;73.87;101418.42;1701636;82;22458;-86
2020/12/09 06:46:05;;;;;;;26.30;13.98;;;;;;;-4.18;73.84;101418.42;1716479;83;21131;-86
2020/12/09 06:48:39;;;;;;;25.32;13.98;;;;;;;-4.17;73.84;101418.84;1714350;82;21148;-86
2020/12/09 06:51:35;;;;;;;31.40;16.85;;;;;;;-4.16;73.90;101418.41;1715913;83;21430;-87
2020/12/09 06:54:13;;;;;;;28.32;14.13;;;;;;;-4.17;73.92;101421.42;1712301;82;22423;-88
2020/12/09 06:56:45;;;;;;;18.05;9.75;;;;;;;-4.16;74.01;101418.41;1713261;82;21146;-87
2020/12/09 06:59:26;;;;;;;22.62;12.75;;;;;;;-4.14;74.07;101425.30;1614138;83;21148;-80
2020/12/09 07:04:57;;;;;;;26.77;14.87;;;;;;;-4.12;74.30;101421.43;1704526;82;21095;-77
2020/12/09 07:07:36;;;;;;;23.15;12.10;;;;;;;-4.11;74.39;101424.00;1685673;83;22305;-79
2020/12/09 07:10:13;;;;;;;18.20;9.68;;;;;;;-4.07;74.52;101430.00;1717339;83;21616;-74
2020/12/09 07:12:41;;;;;;;23.02;11.08;;;;;;;-4.06;74.65;101431.28;1715700;83;21042;-83
2020/12/09 07:15:16;;;;;;;29.67;14.95;;;;;;;-4.04;74.74;101435.17;1720164;83;21042;-74
2020/12/09 07:17:44;;;;;;;27.95;14.83;;;;;;;-4.05;74.83;101439.48;1720927;82;21117;-86
2020/12/09 07:20:12;;;;;;;25.40;13.22;;;;;;;-4.01;74.89;101443.33;1721234;83;21900;-75
2020/12/09 07:22:39;;;;;;;32.42;14.90;;;;;;;-4.00;74.99;101440.73;1720292;83;21073;-74
2020/12/09 07:25:09;;;;;;;28.65;14.23;;;;;;;-4.01;75.10;101441.61;1718905;83;21061;-76
2020/12/09 07:27:38;;;;;;;22.30;11.03;;;;;;;-3.99;75.16;101446.76;1710929;82;21133;-84
2020/12/09 07:30:08;;;;;;;23.80;12.88;;;;;;;-3.98;75.25;101443.31;1712566;82;21157;-83
2020/12/09 07:35:12;;;;;;;24.32;11.88;;;;;;;-4.00;75.34;101443.32;1719384;83;21073;-82
2020/12/09 07:43:12;;;;;;;28.67;14.20;;;;;;;-3.93;75.56;101448.05;1867079;76;27139;-84
2020/12/09 07:45:43;;;;;;;30.65;13.95;;;;;;;-3.93;75.61;101450.63;1825933;78;21111;-79
2020/12/09 07:48:16;;;;;;;28.95;15.00;;;;;;;-3.94;75.64;101447.19;1792809;79;22044;-82
2020/12/09 07:50:52;;;;;;;27.42;13.10;;;;;;;-3.96;75.61;101459.64;1778645;80;21076;-83
2020/12/09 07:53:20;;;;;;;27.07;13.78;;;;;;;-3.95;75.60;101453.22;1754905;80;21131;-75
2020/12/09 07:55:49;;;;;;;29.27;13.98;;;;;;;-3.98;75.58;101457.07;1770710;80;21558;-82
2020/12/09 07:58:17;;;;;;;26.65;12.88;;;;;;;-3.95;75.60;101456.23;1753769;80;21140;-82
2020/12/09 08:00:50;;;;;;;25.35;12.60;;;;;;;-3.93;75.61;101456.64;1759533;80;22374;-82
2020/12/09 08:03:24;;;;;;;28.65;15.75;;;;;;;-3.93;75.64;101464.82;1771405;80;21112;-80
2020/12/09 08:05:54;;;;;;;26.85;14.68;;;;;;;-3.94;75.64;101457.52;1753661;80;21125;-77
2020/12/09 08:08:24;;;;;;;23.45;12.43;;;;;;;-3.93;75.69;101459.22;1725480;82;21061;-78
2020/12/09 08:10:52;;;;;;;27.27;13.30;;;;;;;-3.91;75.71;101463.09;1752812;82;21452;-77
2020/12/09 08:13:23;;;;;;;25.90;13.03;;;;;;;-3.91;75.73;101456.20;1751396;82;21891;-82
2020/12/09 08:16:08;;;;;;;26.57;12.88;;;;;;;-3.88;75.76;101460.48;1752714;82;21069;-78
2020/12/09 08:18:43;;;;;;;24.35;12.60;;;;;;;-3.85;75.78;101452.32;1752861;82;21461;-78
2020/12/09 08:21:11;;;;;;;21.33;11.88;;;;;;;-3.83;75.75;101445.86;1752906;82;21140;-80
2020/12/09 08:23:46;;;;;;;24.27;11.88;;;;;;;-3.81;75.74;101437.23;1727510;82;21069;-80
2020/12/09 08:26:30;;;;;;;21.87;12.65;;;;;;;-3.78;75.75;101444.11;1721278;83;22023;-76
2020/12/09 08:28:58;;;;;;;22.27;10.93;;;;;;;-3.76;75.73;101434.22;1734050;82;21176;-77
2020/12/09 08:31:26;;;;;;;27.22;14.98;;;;;;;-3.71;75.67;101435.92;1751956;82;21203;-81
2020/12/09 08:33:54;;;;;;;24.15;11.70;;;;;;;-3.67;75.67;101435.03;1745210;82;21508;-75
2020/12/09 08:36:22;;;;;;;22.77;11.57;;;;;;;-3.62;75.63;101434.59;1751280;82;21057;-76
2020/12/09 08:38:59;;;;;;;23.67;11.57;;;;;;;-3.64;75.58;101438.47;1751300;82;21892;-75
2020/12/09 08:41:35;;;;;;;24.55;12.75;;;;;;;-3.64;75.57;101439.77;1753700;81;21215;-74
2020/12/09 08:44:06;;;;;;;23.50;13.62;;;;;;;-3.61;75.59;101432.00;1768267;80;21033;-75
2020/12/09 08:46:34;;;;;;;19.80;11.85;;;;;;;-3.61;75.57;101434.58;1768202;79;21607;-76
2020/12/09 08:49:03;;;;;;;23.85;11.85;;;;;;;-3.61;75.60;101434.58;1738495;81;21061;-75
2020/12/09 08:51:34;;;;;;;21.70;10.45;;;;;;;-3.62;75.57;101430.72;1768281;80;24260;-73
2020/12/09 08:54:05;;;;;;;19.12;10.58;;;;;;;-3.65;75.51;101429.45;1749292;81;21073;-76
2020/12/09 08:56:33;;;;;;;24.35;12.13;;;;;;;-3.68;75.48;101425.56;1766880;80;21073;-76
2020/12/09 08:59:01;;;;;;;18.00;10.40;;;;;;;-3.70;75.48;101421.70;1760216;81;21116;-77
2020/12/09 09:01:38;;;;;;;20.72;10.98;;;;;;;-3.69;75.46;101421.27;1732312;81;21132;-79
2020/12/09 09:04:10;;;;;;;18.82;10.38;;;;;;;-3.70;75.46;101420.41;1745258;81;21818;-75
2020/12/09 09:06:39;;;;;;;24.10;12.95;;;;;;;-3.70;75.48;101416.55;1752186;81;21532;-76
2020/12/09 09:09:09;;;;;;;23.12;12.80;;;;;;;-3.70;75.46;101420.41;1753888;81;21115;-74
2020/12/09 09:11:38;;;;;;;17.67;10.70;;;;;;;-3.69;75.48;101414.81;1755238;81;21143;-76
2020/12/09 09:16:42;;;;;;;;;;;;;;;-3.71;75.59;101410.95;1758196;81;21947;-76
2020/12/09 09:19:10;;;;;;;24.98;13.08;;;;;;;-3.71;75.65;101410.95;1739955;81;20223;-78
2020/12/09 09:21:40;;;;;;;24.52;12.73;;;;;;;-3.69;75.71;101412.23;1729682;81;21118;-79
2020/12/09 09:24:09;;;;;;;21.48;11.35;;;;;;;-3.69;75.64;101407.07;1736815;82;21069;-76
2020/12/09 09:26:37;;;;;;;27.50;13.53;;;;;;;-3.72;75.60;101409.24;1741379;79;21541;-78
2020/12/09 09:29:05;;;;;;;23.57;12.23;;;;;;;-3.75;75.59;101414.43;1748072;79;21910;-78
2020/12/09 09:31:34;;;;;;;24.20;13.28;;;;;;;-3.74;75.62;101418.72;1757167;79;21062;-80
2020/12/09 09:34:04;;;;;;;29.65;15.18;;;;;;;-3.70;75.60;101420.84;1765496;81;21066;-82
2020/12/09 09:36:32;;;;;;;18.00;9.20;;;;;;;-3.67;75.59;101416.95;1742052;81;21157;-78
2020/12/09 09:39:00;;;;;;;22.95;11.40;;;;;;;-3.63;75.55;101413.08;1749384;79;21149;-82
2020/12/09 09:41:42;;;;;;;29.27;14.65;;;;;;;-3.64;75.35;101415.23;1732621;81;21836;-75
2020/12/09 09:44:10;;;;;;;26.87;13.85;;;;;;;-3.66;75.20;101416.97;1760221;79;21115;-76
2020/12/09 09:46:38;;;;;;;26.95;14.47;;;;;;;-3.66;75.20;101413.09;1753084;80;21547;-81
2020/12/09 09:49:07;;;;;;;20.37;11.03;;;;;;;-3.63;75.21;101408.34;1767441;79;21056;-82
2020/12/09 09:51:35;;;;;;;28.55;13.85;;;;;;;-3.59;75.21;101410.03;1769137;80;21050;-80
2020/12/09 09:54:06;;;;;;;21.00;10.45;;;;;;;-3.60;75.10;101405.74;1768968;80;21865;-82
2020/12/09 09:56:41;;;;;;;24.12;11.55;;;;;;;-3.59;75.07;101412.61;1743846;81;21077;-81
2020/12/09 09:59:12;;;;;;;20.40;11.10;;;;;;;-3.63;74.93;101407.05;1769002;81;21544;-78
2020/12/09 10:01:39;;;;;;;20.82;9.93;;;;;;;-3.67;74.85;101400.17;1760091;81;21130;-80
2020/12/09 10:04:11;;;;;;;28.90;13.62;;;;;;;-3.69;74.79;101396.31;1754064;81;21128;-74
2020/12/09 10:06:42;;;;;;;26.48;13.05;;;;;;;-3.70;74.75;101396.33;1765691;81;22772;-72
2020/12/09 10:09:11;;;;;;;23.18;12.33;;;;;;;-3.72;74.74;101393.75;1762257;81;21113;-75
2020/12/09 10:11:40;;;;;;;22.15;12.78;;;;;;;-3.70;74.74;101396.33;1767230;80;21607;-76
2020/12/09 10:14:09;;;;;;;21.07;11.33;;;;;;;-3.69;74.73;101397.60;1765970;79;21172;-76
2020/12/09 10:16:39;;;;;;;23.80;12.65;;;;;;;-3.68;74.70;101393.30;1767609;81;21163;-76
2020/12/09 10:19:06;;;;;;;24.12;13.60;;;;;;;-3.67;74.67;101397.16;1760308;81;21895;-74
2020/12/09 10:21:34;;;;;;;23.65;13.35;;;;;;;-3.68;74.57;101393.30;1765856;80;21103;-75
2020/12/09 10:24:05;;;;;;;23.05;12.25;;;;;;;-3.70;74.47;101407.51;1765407;81;21092;-72
2020/12/09 10:26:38;;;;;;;17.30;9.53;;;;;;;-3.72;74.43;101404.52;1765148;79;21590;-71
2020/12/09 10:29:08;;;;;;;17.40;9.48;;;;;;;-3.70;74.44;101395.03;1749433;81;21113;-72
2020/12/09 10:31:41;;;;;;;22.05;12.20;;;;;;;-3.69;74.39;101398.03;1731591;80;22963;-73
2020/12/09 10:34:11;;;;;;;15.93;8.48;;;;;;;-3.72;74.31;101400.20;1762968;81;23042;-73
2020/12/09 10:36:41;;;;;;;19.10;11.43;;;;;;;-3.73;74.31;101392.04;1743843;80;21182;-73
2020/12/09 10:39:09;;;;;;;20.85;12.23;;;;;;;-3.73;74.30;101388.17;1752263;81;21166;-71
2020/12/09 10:41:41;;;;;;;22.27;12.58;;;;;;;-3.73;74.31;101389.89;1759406;80;21124;-69
2020/12/09 10:44:10;;;;;;;20.08;10.48;;;;;;;-3.72;74.33;101399.35;1747953;81;22164;-71
2020/12/09 10:46:39;;;;;;;20.80;11.40;;;;;;;-3.72;74.34;101386.44;1733581;81;21135;-71
2020/12/09 10:49:10;;;;;;;21.33;12.15;;;;;;;-3.72;74.38;101387.30;1725720;83;21140;-71
2020/12/09 10:51:49;;;;;;;24.35;12.47;;;;;;;-3.68;74.35;101383.82;1756957;80;21475;-71
2020/12/09 10:54:18;;;;;;;19.70;11.78;;;;;;;-3.69;74.25;101382.11;1737086;81;21151;-71
2020/12/09 10:56:46;;;;;;;22.02;12.43;;;;;;;-3.69;74.26;101383.84;1751637;81;22108;-71
2020/12/09 10:59:22;;;;;;;21.25;12.98;;;;;;;-3.68;74.27;101390.71;1746863;80;21492;-71
2020/12/09 11:01:54;;;;;;;21.35;12.13;;;;;;;-3.72;74.17;101385.16;1755749;81;21531;-72
2020/12/09 11:04:22;;;;;;;19.48;11.55;;;;;;;-3.75;74.12;101389.91;1754757;80;21077;-71
2020/12/09 11:06:50;;;;;;;23.18;14.20;;;;;;;-3.78;74.10;101380.86;1751848;81;21554;-71
2020/12/09 11:09:18;;;;;;;19.40;11.33;;;;;;;-3.78;74.11;101384.73;1754605;81;22027;-72
2020/12/09 11:11:46;;;;;;;18.48;10.15;;;;;;;-3.76;74.07;101386.91;1756518;80;21554;-71
2020/12/09 11:14:14;;;;;;;19.48;11.30;;;;;;;-3.78;73.96;101386.88;1755744;80;21049;-69
2020/12/09 11:16:43;;;;;;;18.35;10.50;;;;;;;-3.82;73.90;101381.75;1755567;81;21056;-71
2020/12/09 11:19:12;;;;;;;23.65;13.88;;;;;;;-3.87;73.87;101386.92;1755816;81;21064;-71
2020/12/09 11:21:44;;;;;;;21.05;11.18;;;;;;;-3.89;73.85;101385.22;1720297;81;21951;-69
2020/12/09 11:24:15;;;;;;;23.07;11.93;;;;;;;-3.90;73.82;101388.23;1740332;81;21499;-74
2020/12/09 11:26:47;;;;;;;24.80;13.78;;;;;;;-3.93;73.84;101380.52;1746070;81;21192;-71
2020/12/09 11:29:15;;;;;;;18.77;11.88;;;;;;;-3.92;73.88;101382.23;1757837;81;21631;-70
2020/12/09 11:31:43;;;;;;;20.72;12.28;;;;;;;-3.88;73.89;101386.50;1757439;81;21050;-72
2020/12/09 11:34:15;;;;;;;19.87;11.53;;;;;;;-3.86;73.83;101377.45;1758080;81;22052;-71
2020/12/09 11:36:43;;;;;;;20.20;11.55;;;;;;;-3.89;73.66;101376.19;1757089;81;21131;-71
2020/12/09 11:39:15;;;;;;;17.67;9.60;;;;;;;-3.92;73.66;101371.91;1750059;82;21061;-71
2020/12/09 11:41:49;;;;;;;21.20;12.85;;;;;;;-3.90;73.66;101371.89;1749691;82;21175;-71
2020/12/09 11:44:19;;;;;;;24.37;12.25;;;;;;;-3.93;73.66;101374.06;1750333;81;21188;-71
2020/12/09 11:46:54;;;;;;;23.95;13.48;;;;;;;-3.91;73.68;101371.03;1750124;80;23011;-72